createdAt,value
2018-09-13T00:00:59.281Z,70.81
2018-09-13T00:02:03.642Z,70.56
2018-09-13T00:03:08.079Z,70.51
2018-09-13T00:04:12.259Z,71.00
2018-09-13T00:05:16.466Z,71.19
2018-09-13T00:06:20.600Z,70.89
2018-09-13T00:07:24.829Z,71.33
2018-09-13T00:08:29.013Z,70.56
2018-09-13T00:09:33.239Z,71.30
2018-09-13T00:10:37.529Z,70.66
2018-09-13T00:11:41.691Z,70.75
2018-09-13T00:12:45.943Z,70.92
2018-09-13T00:13:50.463Z,70.96
2018-09-13T00:14:54.648Z,71.45
2018-09-13T00:15:58.866Z,71.66
2018-09-13T00:17:03.054Z,71.41
2018-09-13T00:18:07.276Z,71.51
2018-09-13T00:19:11.545Z,71.96
2018-09-13T00:20:15.796Z,72.28
2018-09-13T00:21:20.013Z,72.03
2018-09-13T00:22:24.190Z,72.58
2018-09-13T00:23:28.375Z,71.95
2018-09-13T00:24:32.611Z,72.98
2018-09-13T00:25:36.823Z,72.69
2018-09-13T00:26:41.020Z,73.01
2018-09-13T00:27:45.306Z,73.02
2018-09-13T00:28:49.555Z,72.37
2018-09-13T00:29:53.718Z,72.50
2018-09-13T00:30:58.238Z,72.74
2018-09-13T00:32:02.438Z,73.25
2018-09-13T00:33:06.902Z,72.98
2018-09-13T00:34:11.214Z,73.35
2018-09-13T00:35:15.626Z,73.60
2018-09-13T00:36:19.885Z,73.31
2018-09-13T00:37:24.228Z,73.05
2018-09-13T00:38:28.390Z,73.13
2018-09-13T00:39:32.956Z,73.77
2018-09-13T00:40:37.151Z,73.83
2018-09-13T00:41:41.302Z,73.95
2018-09-13T00:42:45.476Z,73.76
2018-09-13T00:43:50.158Z,74.25
2018-09-13T00:44:54.353Z,74.34
2018-09-13T00:45:58.502Z,74.43
2018-09-13T00:47:02.700Z,73.88
2018-09-13T00:48:07.070Z,73.92
2018-09-13T00:49:11.276Z,73.92
2018-09-13T00:50:15.813Z,74.77
2018-09-13T00:51:19.970Z,74.05
2018-09-13T00:52:24.120Z,74.75
2018-09-13T00:53:28.278Z,74.31
2018-09-13T00:54:32.417Z,74.89
2018-09-13T00:55:36.800Z,74.76
2018-09-13T00:56:41.016Z,74.94
2018-09-13T00:57:45.166Z,75.26
2018-09-13T00:58:49.302Z,74.77
2018-09-13T00:59:53.530Z,75.18
2018-09-13T01:00:57.822Z,74.96
2018-09-13T01:02:04.930Z,75.09
2018-09-13T01:03:09.079Z,75.51
2018-09-13T01:04:13.233Z,75.70
2018-09-13T01:05:17.602Z,74.96
2018-09-13T01:06:21.998Z,75.06
2018-09-13T01:07:26.175Z,75.68
2018-09-13T01:08:30.468Z,75.74
2018-09-13T01:09:34.611Z,75.31
2018-09-13T01:10:38.728Z,75.54
2018-09-13T01:11:42.874Z,76.22
2018-09-13T01:12:46.990Z,76.17
2018-09-13T01:13:51.142Z,75.72
2018-09-13T01:14:55.265Z,75.97
2018-09-13T01:15:59.369Z,75.91
2018-09-13T01:17:03.517Z,76.62
2018-09-13T01:18:07.642Z,76.73
2018-09-13T01:19:11.782Z,76.67
2018-09-13T01:20:16.003Z,77.19
2018-09-13T01:21:20.345Z,76.72
2018-09-13T01:22:24.497Z,76.98
2018-09-13T01:23:28.781Z,76.89
2018-09-13T01:24:32.918Z,77.20
2018-09-13T01:25:37.058Z,77.23
2018-09-13T01:26:41.162Z,77.26
2018-09-13T01:27:45.317Z,77.46
2018-09-13T01:28:49.445Z,77.26
2018-09-13T01:29:53.602Z,77.75
2018-09-13T01:30:57.739Z,77.32
2018-09-13T01:32:01.876Z,77.55
2018-09-13T01:33:06.050Z,77.81
2018-09-13T01:34:10.178Z,77.83
2018-09-13T01:35:14.303Z,77.34
2018-09-13T01:36:18.973Z,77.60
2018-09-13T01:37:23.102Z,77.72
2018-09-13T01:38:27.397Z,77.54
2018-09-13T01:39:31.533Z,77.72
2018-09-13T01:40:35.641Z,77.99
2018-09-13T01:41:40.065Z,77.72
2018-09-13T01:42:44.206Z,77.58
2018-09-13T01:43:48.373Z,77.60
2018-09-13T01:44:52.537Z,77.56
2018-09-13T01:45:56.681Z,77.62
2018-09-13T01:47:00.815Z,77.88
2018-09-13T01:48:04.985Z,77.74
2018-09-13T01:49:09.133Z,78.36
2018-09-13T01:50:13.321Z,77.79
2018-09-13T01:51:17.440Z,77.72
2018-09-13T01:52:21.554Z,78.40
2018-09-13T01:53:25.673Z,78.16
2018-09-13T01:54:29.830Z,78.29
2018-09-13T01:55:33.942Z,77.94
2018-09-13T01:56:38.046Z,77.79
2018-09-13T01:57:42.162Z,78.48
2018-09-13T01:58:46.278Z,78.06
2018-09-13T01:59:50.417Z,78.41
2018-09-13T02:00:54.971Z,78.02
2018-09-13T02:01:59.031Z,78.55
2018-09-13T02:03:03.194Z,78.05
2018-09-13T02:04:07.370Z,78.32
2018-09-13T02:05:11.526Z,77.92
2018-09-13T02:06:15.658Z,78.57
2018-09-13T02:07:19.805Z,78.21
2018-09-13T02:08:23.909Z,78.19
2018-09-13T02:09:28.082Z,78.59
2018-09-13T02:10:32.234Z,78.37
2018-09-13T02:11:36.349Z,78.39
2018-09-13T02:12:40.520Z,78.70
2018-09-13T02:13:44.797Z,78.67
2018-09-13T02:14:48.917Z,78.30
2018-09-13T02:15:53.105Z,78.17
2018-09-13T02:16:57.245Z,78.43
2018-09-13T02:18:01.430Z,78.46
2018-09-13T02:19:05.654Z,78.82
2018-09-13T02:20:09.996Z,78.76
2018-09-13T02:21:14.303Z,78.63
2018-09-13T02:22:18.393Z,78.92
2018-09-13T02:23:22.554Z,78.36
2018-09-13T02:24:26.662Z,78.50
2018-09-13T02:25:30.801Z,78.78
2018-09-13T02:26:34.941Z,78.56
2018-09-13T02:27:39.075Z,79.02
2018-09-13T02:28:43.262Z,79.22
2018-09-13T02:29:47.414Z,79.29
2018-09-13T02:30:51.529Z,78.99
2018-09-13T02:31:55.694Z,79.29
2018-09-13T02:32:59.893Z,79.36
2018-09-13T02:34:04.613Z,79.39
2018-09-13T02:35:08.738Z,78.90
2018-09-13T02:36:13.054Z,79.13
2018-09-13T02:37:17.357Z,79.59
2018-09-13T02:38:21.482Z,79.48
2018-09-13T02:39:25.641Z,79.37
2018-09-13T02:40:29.842Z,79.18
2018-09-13T02:41:33.962Z,78.84
2018-09-13T02:42:38.190Z,79.15
2018-09-13T02:43:42.317Z,79.45
2018-09-13T02:44:46.464Z,79.31
2018-09-13T02:45:50.629Z,79.20
2018-09-13T02:46:54.752Z,79.26
2018-09-13T02:47:58.893Z,79.20
2018-09-13T02:49:03.091Z,79.40
2018-09-13T02:50:07.129Z,78.68
2018-09-13T02:51:11.425Z,78.67
2018-09-13T02:52:15.578Z,78.62
2018-09-13T02:53:19.994Z,78.50
2018-09-13T02:54:24.149Z,78.57
2018-09-13T02:55:28.270Z,78.87
2018-09-13T02:56:32.598Z,79.07
2018-09-13T02:57:36.911Z,79.16
2018-09-13T02:58:41.145Z,79.06
2018-09-13T02:59:45.245Z,78.98
2018-09-13T03:00:49.365Z,78.63
2018-09-13T03:01:53.511Z,78.58
2018-09-13T03:02:57.623Z,78.73
2018-09-13T03:04:01.781Z,78.85
2018-09-13T03:05:05.933Z,79.26
2018-09-13T03:06:10.054Z,78.46
2018-09-13T03:07:14.198Z,78.92
2018-09-13T03:08:18.374Z,79.24
2018-09-13T03:09:22.492Z,78.41
2018-09-13T03:10:26.677Z,78.62
2018-09-13T03:11:30.861Z,78.82
2018-09-13T03:12:35.174Z,79.30
2018-09-13T03:13:39.487Z,78.95
2018-09-13T03:14:43.617Z,79.12
2018-09-13T03:15:47.951Z,79.17
2018-09-13T03:16:52.219Z,79.37
2018-09-13T03:17:56.361Z,79.56
2018-09-13T03:19:00.486Z,79.19
2018-09-13T03:20:04.685Z,79.71
2018-09-13T03:21:08.862Z,78.88
2018-09-13T03:22:13.118Z,79.63
2018-09-13T03:23:17.225Z,78.96
2018-09-13T03:24:21.548Z,79.01
2018-09-13T03:25:25.865Z,79.13
2018-09-13T03:26:29.987Z,79.56
2018-09-13T03:27:34.344Z,78.95
2018-09-13T03:28:38.636Z,79.29
2018-09-13T03:29:42.790Z,79.03
2018-09-13T03:30:47.013Z,79.05
2018-09-13T03:31:51.307Z,79.19
2018-09-13T03:32:55.482Z,79.33
2018-09-13T03:33:59.606Z,79.00
2018-09-13T03:35:03.856Z,78.92
2018-09-13T03:36:07.987Z,79.60
2018-09-13T03:37:12.119Z,79.08
2018-09-13T03:38:16.516Z,79.65
2018-09-13T03:39:20.669Z,79.55
2018-09-13T03:40:24.810Z,79.25
2018-09-13T03:41:28.937Z,79.56
2018-09-13T03:42:33.054Z,78.95
2018-09-13T03:43:37.378Z,79.45
2018-09-13T03:44:41.505Z,78.85
2018-09-13T03:45:45.789Z,78.83
2018-09-13T03:46:50.041Z,79.36
2018-09-13T03:47:54.177Z,79.35
2018-09-13T03:48:58.313Z,78.91
2018-09-13T03:50:02.479Z,78.61
2018-09-13T03:51:06.654Z,79.17
2018-09-13T03:52:10.787Z,78.66
2018-09-13T03:53:14.933Z,78.93
2018-09-13T03:54:19.041Z,79.10
2018-09-13T03:55:23.163Z,78.68
2018-09-13T03:56:27.528Z,78.58
2018-09-13T03:57:31.669Z,78.87
2018-09-13T03:58:35.809Z,78.54
2018-09-13T03:59:39.895Z,78.92
2018-09-13T04:00:44.005Z,78.79
2018-09-13T04:01:48.335Z,78.60
2018-09-13T04:02:52.465Z,79.18
2018-09-13T04:03:56.630Z,78.64
2018-09-13T04:05:00.753Z,78.61
2018-09-13T04:06:04.921Z,78.87
2018-09-13T04:07:09.018Z,78.56
2018-09-13T04:08:13.318Z,78.47
2018-09-13T04:09:17.461Z,78.74
2018-09-13T04:10:21.590Z,78.60
2018-09-13T04:11:25.717Z,78.43
2018-09-13T04:12:30.205Z,78.29
2018-09-13T04:13:34.408Z,78.75
2018-09-13T04:14:38.525Z,78.00
2018-09-13T04:15:42.629Z,78.06
2018-09-13T04:16:46.741Z,78.57
2018-09-13T04:17:50.964Z,78.71
2018-09-13T04:18:55.095Z,78.71
2018-09-13T04:19:59.375Z,78.05
2018-09-13T04:21:03.523Z,78.18
2018-09-13T04:22:07.633Z,78.20
2018-09-13T04:23:11.769Z,78.17
2018-09-13T04:24:15.989Z,78.14
2018-09-13T04:25:20.085Z,78.24
2018-09-13T04:26:24.301Z,78.17
2018-09-13T04:27:28.429Z,78.61
2018-09-13T04:28:32.623Z,78.60
2018-09-13T04:29:36.733Z,78.60
2018-09-13T04:30:41.104Z,78.04
2018-09-13T04:31:45.202Z,78.26
2018-09-13T04:32:49.661Z,78.69
2018-09-13T04:33:53.887Z,77.78
2018-09-13T04:34:58.041Z,77.95
2018-09-13T04:36:02.196Z,77.89
2018-09-13T04:37:06.630Z,77.87
2018-09-13T04:38:10.722Z,77.86
2018-09-13T04:39:15.089Z,78.31
2018-09-13T04:40:19.239Z,78.46
2018-09-13T04:41:23.360Z,77.81
2018-09-13T04:42:27.579Z,77.83
2018-09-13T04:43:31.783Z,77.53
2018-09-13T04:44:35.886Z,77.59
2018-09-13T04:45:40.010Z,77.87
2018-09-13T04:46:44.129Z,77.65
2018-09-13T04:47:48.300Z,77.75
2018-09-13T04:48:52.399Z,78.50
2018-09-13T04:49:56.548Z,77.76
2018-09-13T04:51:00.709Z,78.27
2018-09-13T04:52:04.837Z,78.34
2018-09-13T04:53:08.967Z,78.29
2018-09-13T04:54:13.141Z,77.78
2018-09-13T04:55:17.324Z,78.07
2018-09-13T04:56:21.530Z,77.61
2018-09-13T04:57:25.826Z,77.86
2018-09-13T04:58:30.044Z,77.73
2018-09-13T04:59:34.134Z,78.15
2018-09-13T05:00:38.350Z,78.26
2018-09-13T05:01:42.877Z,77.50
2018-09-13T05:02:47.169Z,77.47
2018-09-13T05:03:51.269Z,77.54
2018-09-13T05:04:55.405Z,78.29
2018-09-13T05:05:59.591Z,77.69
2018-09-13T05:07:03.735Z,77.67
2018-09-13T05:08:07.884Z,78.35
2018-09-13T05:09:13.381Z,78.03
2018-09-13T05:10:18.590Z,77.50
2018-09-13T05:11:25.772Z,77.76
2018-09-13T05:12:29.996Z,77.99
2018-09-13T05:13:34.135Z,78.33
2018-09-13T05:14:38.250Z,77.82
2018-09-13T05:15:42.388Z,78.28
2018-09-13T05:16:46.550Z,78.12
2018-09-13T05:17:50.692Z,78.49
2018-09-13T05:18:54.850Z,77.76
2018-09-13T05:19:59.157Z,77.76
2018-09-13T05:21:03.269Z,78.52
2018-09-13T05:22:07.379Z,77.94
2018-09-13T05:23:11.675Z,77.81
2018-09-13T05:24:16.034Z,77.72
2018-09-13T05:25:20.110Z,78.56
2018-09-13T05:26:24.235Z,77.80
2018-09-13T05:27:28.366Z,78.33
2018-09-13T05:28:32.504Z,77.91
2018-09-13T05:29:36.605Z,78.35
2018-09-13T05:30:40.758Z,78.41
2018-09-13T05:31:44.903Z,78.07
2018-09-13T05:32:48.968Z,77.94
2018-09-13T05:33:53.150Z,77.93
2018-09-13T05:34:57.268Z,78.02
2018-09-13T05:36:01.385Z,78.15
2018-09-13T05:37:05.834Z,77.97
2018-09-13T05:38:10.136Z,78.45
2018-09-13T05:39:14.746Z,78.39
2018-09-13T05:40:18.893Z,77.64
2018-09-13T05:41:23.017Z,78.23
2018-09-13T05:42:27.152Z,78.38
2018-09-13T05:43:31.288Z,77.53
2018-09-13T05:44:35.519Z,77.59
2018-09-13T05:45:39.617Z,77.83
2018-09-13T05:46:43.749Z,77.89
2018-09-13T05:47:47.893Z,78.22
2018-09-13T05:48:52.014Z,78.45
2018-09-13T05:49:56.293Z,78.13
2018-09-13T05:51:00.644Z,77.72
2018-09-13T05:52:04.715Z,78.21
2018-09-13T05:53:08.929Z,77.60
2018-09-13T05:54:13.034Z,77.55
2018-09-13T05:55:17.182Z,77.73
2018-09-13T05:56:21.380Z,78.08
2018-09-13T05:57:25.497Z,78.19
2018-09-13T05:58:29.610Z,77.74
2018-09-13T05:59:33.733Z,77.39
2018-09-13T06:00:37.877Z,77.94
2018-09-13T06:01:42.034Z,78.10
2018-09-13T06:02:46.342Z,77.97
2018-09-13T06:03:50.447Z,77.73
2018-09-13T06:04:54.560Z,77.57
2018-09-13T06:05:58.752Z,77.95
2018-09-13T06:07:02.890Z,77.84
2018-09-13T06:08:07.079Z,77.80
2018-09-13T06:09:11.138Z,77.84
2018-09-13T06:10:15.416Z,77.85
2018-09-13T06:11:19.657Z,77.08
2018-09-13T06:12:23.788Z,77.06
2018-09-13T06:13:27.973Z,76.83
2018-09-13T06:14:32.051Z,77.56
2018-09-13T06:15:36.189Z,77.17
2018-09-13T06:16:40.355Z,77.14
2018-09-13T06:17:44.662Z,77.05
2018-09-13T06:18:48.803Z,77.54
2018-09-13T06:19:53.167Z,76.96
2018-09-13T06:20:57.213Z,76.70
2018-09-13T06:22:01.362Z,77.21
2018-09-13T06:23:05.486Z,77.20
2018-09-13T06:24:09.718Z,76.48
2018-09-13T06:25:13.944Z,76.97
2018-09-13T06:26:18.100Z,76.44
2018-09-13T06:27:22.259Z,76.49
2018-09-13T06:28:26.447Z,76.85
2018-09-13T06:29:30.737Z,77.23
2018-09-13T06:30:34.855Z,76.53
2018-09-13T06:31:39.128Z,76.41
2018-09-13T06:32:43.290Z,77.08
2018-09-13T06:33:47.477Z,76.99
2018-09-13T06:34:52.694Z,77.01
2018-09-13T06:35:59.825Z,76.38
2018-09-13T06:37:06.556Z,76.96
2018-09-13T06:38:13.767Z,76.28
2018-09-13T06:39:21.262Z,76.15
2018-09-13T06:40:28.440Z,76.47
2018-09-13T06:41:33.182Z,76.19
2018-09-13T06:42:37.625Z,76.89
2018-09-13T06:43:41.849Z,76.19
2018-09-13T06:44:46.070Z,76.45
2018-09-13T06:45:50.734Z,76.15
2018-09-13T06:46:54.933Z,76.59
2018-09-13T06:47:59.140Z,76.53
2018-09-13T06:49:03.384Z,76.70
2018-09-13T06:50:07.857Z,76.65
2018-09-13T06:51:12.039Z,76.50
2018-09-13T06:52:18.058Z,76.60
2018-09-13T06:53:24.466Z,75.92
2018-09-13T06:54:30.611Z,75.84
2018-09-13T06:55:36.380Z,76.15
2018-09-13T06:56:40.855Z,76.19
2018-09-13T06:57:45.094Z,75.77
2018-09-13T06:58:49.296Z,76.25
2018-09-13T06:59:53.589Z,75.82
2018-09-13T07:00:57.807Z,75.44
2018-09-13T07:02:01.978Z,75.65
2018-09-13T07:03:06.204Z,76.09
2018-09-13T07:04:10.538Z,76.09
2018-09-13T07:05:14.819Z,75.61
2018-09-13T07:06:19.149Z,76.18
2018-09-13T07:07:23.326Z,75.97
2018-09-13T07:08:27.469Z,75.48
2018-09-13T07:09:31.722Z,75.46
2018-09-13T07:10:35.898Z,76.36
2018-09-13T07:11:40.107Z,75.85
2018-09-13T07:12:45.383Z,75.95
2018-09-13T07:13:50.020Z,75.35
2018-09-13T07:14:54.202Z,75.96
2018-09-13T07:15:58.387Z,75.65
2018-09-13T07:17:02.679Z,75.88
2018-09-13T07:18:07.742Z,75.35
2018-09-13T07:19:12.581Z,75.51
2018-09-13T07:20:17.503Z,75.21
2018-09-13T07:21:21.933Z,75.30
2018-09-13T07:22:26.198Z,75.40
2018-09-13T07:23:30.714Z,75.79
2018-09-13T07:24:34.820Z,75.68
2018-09-13T07:25:39.001Z,74.96
2018-09-13T07:26:43.225Z,75.55
2018-09-13T07:27:47.443Z,74.85
2018-09-13T07:28:51.954Z,74.80
2018-09-13T07:29:56.133Z,74.65
2018-09-13T07:31:00.604Z,75.05
2018-09-13T07:32:04.779Z,74.71
2018-09-13T07:33:08.941Z,74.39
2018-09-13T07:34:13.172Z,74.93
2018-09-13T07:35:17.312Z,74.99
2018-09-13T07:36:21.535Z,74.21
2018-09-13T07:37:25.775Z,74.94
2018-09-13T07:38:29.988Z,74.15
2018-09-13T07:39:34.423Z,74.31
2018-09-13T07:40:38.631Z,74.67
2018-09-13T07:41:42.875Z,74.04
2018-09-13T07:42:47.228Z,74.72
2018-09-13T07:43:51.387Z,74.12
2018-09-13T07:44:55.559Z,74.42
2018-09-13T07:45:59.763Z,74.76
2018-09-13T07:47:03.938Z,74.78
2018-09-13T07:48:08.146Z,74.21
2018-09-13T07:49:12.388Z,73.93
2018-09-13T07:50:16.495Z,74.15
2018-09-13T07:51:20.863Z,73.97
2018-09-13T07:52:25.279Z,73.51
2018-09-13T07:53:29.477Z,73.62
2018-09-13T07:54:33.664Z,74.27
2018-09-13T07:55:37.869Z,74.23
2018-09-13T07:56:42.272Z,73.81
2018-09-13T07:57:46.410Z,73.58
2018-09-13T07:58:51.020Z,73.89
2018-09-13T07:59:55.324Z,73.76
2018-09-13T08:00:59.495Z,73.76
2018-09-13T08:02:03.675Z,73.48
2018-09-13T08:03:07.884Z,73.23
2018-09-13T08:04:12.062Z,73.55
2018-09-13T08:05:16.350Z,73.81
2018-09-13T08:06:20.503Z,73.44
2018-09-13T08:07:24.677Z,73.45
2018-09-13T08:08:29.051Z,72.87
2018-09-13T08:09:33.247Z,73.26
2018-09-13T08:10:37.478Z,73.42
2018-09-13T08:11:41.909Z,73.37
2018-09-13T08:12:46.223Z,72.80
2018-09-13T08:13:50.397Z,73.30
2018-09-13T08:14:54.714Z,72.53
2018-09-13T08:15:59.062Z,73.03
2018-09-13T08:17:03.161Z,72.41
2018-09-13T08:18:07.719Z,72.72
2018-09-13T08:19:12.456Z,72.79
2018-09-13T08:20:17.380Z,72.44
2018-09-13T08:21:21.553Z,72.15
2018-09-13T08:22:25.819Z,72.23
2018-09-13T08:23:29.996Z,72.12
2018-09-13T08:24:34.186Z,72.58
2018-09-13T08:25:38.806Z,72.19
2018-09-13T08:26:43.117Z,72.76
2018-09-13T08:27:47.398Z,72.07
2018-09-13T08:28:52.029Z,72.43
2018-09-13T08:29:56.257Z,72.48
2018-09-13T08:31:00.414Z,72.37
2018-09-13T08:32:04.781Z,72.40
2018-09-13T08:33:08.964Z,71.88
2018-09-13T08:34:13.144Z,71.98
2018-09-13T08:35:17.375Z,72.37
2018-09-13T08:36:21.612Z,72.11
2018-09-13T08:37:25.824Z,72.24
2018-09-13T08:38:30.057Z,71.90
2018-09-13T08:39:34.544Z,71.86
2018-09-13T08:40:38.764Z,71.79
2018-09-13T08:41:42.993Z,71.86
2018-09-13T08:42:47.278Z,72.04
2018-09-13T08:43:51.467Z,71.93
2018-09-13T08:44:55.638Z,71.66
2018-09-13T08:45:59.981Z,71.21
2018-09-13T08:47:04.357Z,71.34
2018-09-13T08:48:08.575Z,71.73
2018-09-13T08:49:12.889Z,71.37
2018-09-13T08:50:16.996Z,71.83
2018-09-13T08:51:21.535Z,71.37
2018-09-13T08:52:25.715Z,71.28
2018-09-13T08:53:29.857Z,71.20
2018-09-13T08:54:34.230Z,71.47
2018-09-13T08:55:38.395Z,71.29
2018-09-13T08:56:42.600Z,71.01
2018-09-13T08:57:46.820Z,71.53
2018-09-13T08:58:51.131Z,71.67
2018-09-13T08:59:55.521Z,71.44
2018-09-13T09:00:59.898Z,71.27
2018-09-13T09:02:04.066Z,71.35
2018-09-13T09:03:08.254Z,71.04
2018-09-13T09:04:12.414Z,70.76
2018-09-13T09:05:16.577Z,70.55
2018-09-13T09:06:20.754Z,70.78
2018-09-13T09:07:25.135Z,71.21
2018-09-13T09:08:29.295Z,70.55
2018-09-13T09:09:33.460Z,70.66
2018-09-13T09:10:37.631Z,70.86
2018-09-13T09:11:42.090Z,71.02
2018-09-13T09:12:46.292Z,70.49
2018-09-13T09:13:50.676Z,71.21
2018-09-13T09:14:54.881Z,71.08
2018-09-13T09:15:59.112Z,70.71
2018-09-13T09:17:03.290Z,70.72
2018-09-13T09:18:07.522Z,70.37
2018-09-13T09:19:11.776Z,70.75
2018-09-13T09:20:16.034Z,70.05
2018-09-13T09:21:20.206Z,70.31
2018-09-13T09:22:24.444Z,70.08
2018-09-13T09:23:28.766Z,70.08
2018-09-13T09:24:33.098Z,70.40
2018-09-13T09:25:37.354Z,69.83
2018-09-13T09:26:41.573Z,70.18
2018-09-13T09:27:45.747Z,70.17
2018-09-13T09:28:50.003Z,69.77
2018-09-13T09:29:54.288Z,69.73
2018-09-13T09:30:58.422Z,69.41
2018-09-13T09:32:02.598Z,69.48
2018-09-13T09:33:07.607Z,69.55
2018-09-13T09:34:11.970Z,69.17
2018-09-13T09:35:16.446Z,69.09
2018-09-13T09:36:20.851Z,68.84
2018-09-13T09:37:25.188Z,68.96
2018-09-13T09:38:29.390Z,68.60
2018-09-13T09:39:33.930Z,69.23
2018-09-13T09:40:38.183Z,69.16
2018-09-13T09:41:42.495Z,69.02
2018-09-13T09:42:46.651Z,69.05
2018-09-13T09:43:50.903Z,68.87
2018-09-13T09:44:55.114Z,69.04
2018-09-13T09:45:59.523Z,68.64
2018-09-13T09:47:03.723Z,68.78
2018-09-13T09:48:07.984Z,68.45
2018-09-13T09:49:12.158Z,68.30
2018-09-13T09:50:16.421Z,68.09
2018-09-13T09:51:20.560Z,68.59
2018-09-13T09:52:24.846Z,68.28
2018-09-13T09:53:29.142Z,68.41
2018-09-13T09:54:33.301Z,68.01
2018-09-13T09:55:37.672Z,68.65
2018-09-13T09:56:41.853Z,67.79
2018-09-13T09:57:46.098Z,67.66
2018-09-13T09:58:50.455Z,67.64
2018-09-13T09:59:54.670Z,67.68
2018-09-13T10:01:04.215Z,67.48
2018-09-13T10:02:13.797Z,67.24
2018-09-13T10:03:18.516Z,68.01
2018-09-13T10:04:22.436Z,67.16
2018-09-13T10:05:26.662Z,67.78
2018-09-13T10:06:31.209Z,66.94
2018-09-13T10:07:35.502Z,67.06
2018-09-13T10:08:39.687Z,66.98
2018-09-13T10:09:43.887Z,67.00
2018-09-13T10:10:48.109Z,67.18
2018-09-13T10:11:52.291Z,66.47
2018-09-13T10:12:56.482Z,66.89
2018-09-13T10:14:00.642Z,66.50
2018-09-13T10:15:10.687Z,66.67
2018-09-13T10:16:19.981Z,66.42
2018-09-13T10:17:29.525Z,66.69
2018-09-13T10:18:39.231Z,66.58
2018-09-13T10:19:48.719Z,66.45
2018-09-13T10:21:55.474Z,66.31
2018-09-13T10:23:04.796Z,66.26
2018-09-13T10:24:14.309Z,66.00
2018-09-13T10:25:23.948Z,66.03
2018-09-13T10:26:34.519Z,65.28
2018-09-13T10:27:42.839Z,66.02
2018-09-13T10:28:52.646Z,65.82
2018-09-13T10:30:02.026Z,65.22
2018-09-13T10:31:11.439Z,65.09
2018-09-13T10:32:20.884Z,65.64
2018-09-13T10:33:30.366Z,65.61
2018-09-13T10:34:39.696Z,65.54
2018-09-13T10:35:49.369Z,65.24
2018-09-13T10:36:59.072Z,65.06
2018-09-13T10:38:08.692Z,65.67
2018-09-13T10:39:18.201Z,65.61
2018-09-13T10:40:27.628Z,65.82
2018-09-13T10:41:37.286Z,65.69
2018-09-13T10:42:46.580Z,65.70
2018-09-13T10:43:57.932Z,65.19
2018-09-13T10:45:07.841Z,65.29
2018-09-13T10:46:17.760Z,65.60
2018-09-13T10:47:27.291Z,65.19
2018-09-13T10:48:32.784Z,65.25
2018-09-13T10:49:42.395Z,65.02
2018-09-13T10:50:51.929Z,64.98
2018-09-13T10:52:03.150Z,65.00
2018-09-13T10:53:17.799Z,64.58
2018-09-13T10:54:30.162Z,64.76
2018-09-13T10:55:34.928Z,64.84
2018-09-13T10:56:39.459Z,64.47
2018-09-13T10:57:44.640Z,64.83
2018-09-13T10:58:49.161Z,64.68
2018-09-13T10:59:53.360Z,64.03
2018-09-13T11:00:57.609Z,63.68
2018-09-13T11:02:01.786Z,64.36
2018-09-13T11:03:06.873Z,63.43
2018-09-13T11:04:11.100Z,63.94
2018-09-13T11:05:15.521Z,63.96
2018-09-13T11:06:19.732Z,63.22
2018-09-13T11:07:23.934Z,63.78
2018-09-13T11:08:28.155Z,63.09
2018-09-13T11:09:32.448Z,63.11
2018-09-13T11:10:36.768Z,63.15
2018-09-13T11:11:40.813Z,62.72
2018-09-13T11:12:50.356Z,62.70
2018-09-13T11:14:00.726Z,62.67
2018-09-13T11:15:09.436Z,62.55
2018-09-13T11:16:13.759Z,62.52
2018-09-13T11:17:17.961Z,62.99
2018-09-13T11:18:22.155Z,62.76
2018-09-13T11:19:26.454Z,62.31
2018-09-13T11:20:31.179Z,63.18
2018-09-13T11:21:35.596Z,62.77
2018-09-13T11:22:39.771Z,62.48
2018-09-13T11:23:43.990Z,62.48
2018-09-13T11:24:48.326Z,62.36
2018-09-13T11:25:52.595Z,62.10
2018-09-13T11:26:56.763Z,62.27
2018-09-13T11:28:01.154Z,61.88
2018-09-13T11:29:05.334Z,62.40
2018-09-13T11:30:09.571Z,61.65
2018-09-13T11:31:13.947Z,61.70
2018-09-13T11:32:18.121Z,61.77
2018-09-13T11:33:22.357Z,61.68
2018-09-13T11:34:26.562Z,61.89
2018-09-13T11:35:30.768Z,61.83
2018-09-13T11:36:35.074Z,61.07
2018-09-13T11:37:39.331Z,61.15
2018-09-13T11:38:43.693Z,61.39
2018-09-13T11:39:47.867Z,60.63
2018-09-13T11:40:52.457Z,60.74
2018-09-13T11:41:56.425Z,60.34
2018-09-13T11:43:00.594Z,60.01
2018-09-13T11:44:04.832Z,60.15
2018-09-13T11:45:09.636Z,60.54
2018-09-13T11:46:13.816Z,60.17
2018-09-13T11:47:18.047Z,59.89
2018-09-13T11:48:22.206Z,60.44
2018-09-13T11:49:26.561Z,59.79
2018-09-13T11:50:30.734Z,60.07
2018-09-13T11:51:35.068Z,59.97
2018-09-13T11:52:39.319Z,60.27
2018-09-13T11:53:43.498Z,60.43
2018-09-13T11:54:47.676Z,59.97
2018-09-13T11:55:51.872Z,60.11
2018-09-13T11:56:56.508Z,59.66
2018-09-13T11:58:00.706Z,60.08
2018-09-13T11:59:04.901Z,60.44
2018-09-13T12:00:09.127Z,60.12
2018-09-13T12:01:13.365Z,60.39
2018-09-13T12:02:17.637Z,60.38
2018-09-13T12:03:21.876Z,60.11
2018-09-13T12:04:26.022Z,60.36
2018-09-13T12:05:30.214Z,60.43
2018-09-13T12:06:34.405Z,60.07
2018-09-13T12:07:38.765Z,59.61
2018-09-13T12:08:43.124Z,59.77
2018-09-13T12:09:47.358Z,60.11
2018-09-13T13:54:39.969Z,58.10
2018-09-13T13:55:44.205Z,58.21
2018-09-13T13:56:48.510Z,58.49
2018-09-13T13:57:52.697Z,58.23
2018-09-13T13:58:56.921Z,57.19
2018-09-13T14:00:01.145Z,57.58
2018-09-13T14:01:05.536Z,57.24
2018-09-13T14:02:09.845Z,57.03
2018-09-13T14:03:14.202Z,56.17
2018-09-13T14:04:18.457Z,56.19
2018-09-13T14:05:22.766Z,56.39
2018-09-13T14:06:26.951Z,55.49
2018-09-13T14:07:31.178Z,56.09
2018-09-13T14:08:35.360Z,55.31
2018-09-13T14:09:39.601Z,55.06
2018-09-13T14:10:43.986Z,55.23
2018-09-13T14:11:48.217Z,55.02
2018-09-13T14:12:52.432Z,54.63
2018-09-13T14:13:56.639Z,54.61
2018-09-13T14:15:00.846Z,54.88
2018-09-13T14:16:05.062Z,54.82
2018-09-13T14:17:09.329Z,54.89
2018-09-13T14:18:13.475Z,54.64
2018-09-13T14:19:17.631Z,54.81
2018-09-13T14:20:21.852Z,54.34
2018-09-13T14:21:26.138Z,54.46
2018-09-13T14:22:30.354Z,54.33
2018-09-13T14:23:34.519Z,54.65
2018-09-13T14:24:38.703Z,54.50
2018-09-13T14:25:43.036Z,54.13
2018-09-13T14:26:47.231Z,53.81
2018-09-13T14:27:51.418Z,53.82
2018-09-13T14:28:55.560Z,54.08
2018-09-13T14:29:59.750Z,53.92
2018-09-13T14:31:03.917Z,53.99
2018-09-13T14:32:08.278Z,53.10
2018-09-13T14:33:12.475Z,53.09
2018-09-13T14:34:16.679Z,53.21
2018-09-13T14:35:20.936Z,52.64
2018-09-13T14:36:25.067Z,52.65
2018-09-13T14:37:29.323Z,53.03
2018-09-13T14:38:33.486Z,52.95
2018-09-13T14:39:37.681Z,52.20
2018-09-13T14:40:43.739Z,52.98
2018-09-13T14:41:47.919Z,52.79
2018-09-13T14:42:52.284Z,53.11
2018-09-13T14:43:56.426Z,53.13
2018-09-13T14:45:00.611Z,52.78
2018-09-13T14:46:05.088Z,52.79
2018-09-13T14:47:09.329Z,53.04
2018-09-13T14:48:13.689Z,53.04
2018-09-13T14:49:17.874Z,52.77
2018-09-13T14:50:22.252Z,52.70
2018-09-13T14:51:26.383Z,52.92
2018-09-13T14:52:30.665Z,52.80
2018-09-13T14:53:35.377Z,52.79
2018-09-13T14:54:39.715Z,52.32
2018-09-13T14:55:43.928Z,52.39
2018-09-13T14:56:48.093Z,52.82
2018-09-13T14:57:52.302Z,52.59
2018-09-13T14:58:56.507Z,52.37
2018-09-13T15:00:00.714Z,52.29
2018-09-13T15:01:04.916Z,52.10
2018-09-13T15:02:09.086Z,52.23
2018-09-13T15:03:13.241Z,52.08
2018-09-13T15:04:17.645Z,53.06
2018-09-13T15:05:23.217Z,52.15
2018-09-13T15:06:27.674Z,52.50
2018-09-13T15:07:31.821Z,52.99
2018-09-13T15:08:35.990Z,52.37
2018-09-13T15:09:40.157Z,52.55
2018-09-13T15:10:44.346Z,52.86
2018-09-13T15:11:48.624Z,52.53
2018-09-13T15:12:52.903Z,52.72
2018-09-13T15:13:56.969Z,52.74
2018-09-13T15:15:01.169Z,52.59
2018-09-13T15:16:05.333Z,53.08
2018-09-13T15:17:09.561Z,52.86
2018-09-13T15:18:13.762Z,53.01
2018-09-13T15:19:18.233Z,53.56
2018-09-13T15:20:22.660Z,53.07
2018-09-13T15:21:27.356Z,53.23
2018-09-13T15:22:31.534Z,53.35
2018-09-13T15:23:35.707Z,53.12
2018-09-13T15:24:39.961Z,52.65
2018-09-13T15:25:44.090Z,53.42
2018-09-13T15:26:48.246Z,52.56
2018-09-13T15:27:52.413Z,52.98
2018-09-13T15:28:56.598Z,52.47
2018-09-13T15:30:00.827Z,52.46
2018-09-13T15:31:05.428Z,52.43
2018-09-13T15:32:09.585Z,52.84
2018-09-13T15:33:13.788Z,52.96
2018-09-13T15:34:17.974Z,52.34
2018-09-13T15:35:22.248Z,52.52
2018-09-13T15:36:26.551Z,53.08